Latest Weather Observations for Tewantin

IDQ60901

Issued at 11:31 pm EST Sunday 26 June 2016 (issued every 10 minutes, with the page automatically refreshed every 10 minutes)

About weather observations | Map of Brisbane area stations | Latest observations for Brisbane area | Other Formats
Station Details ID: 040908 Name: TEWANTIN RSL PARK Lat: -26.39 Lon: 153.04 Height: 6.4 m
Data from the previous 72 hours. | See also: Recent months at Tewantin
Date/Time
EST
Temp
°C
App
Temp
°C
Dew
Point
°C
Rel
Hum
%
Delta-T
°C
Wind Press
QNH
hPa
Press
MSL
hPa
Rain since
9am
mm
Dir  Spd
km/h
Gust
km/h
Spd
kts
Gust
kts
26/11:30pm 13.9 14.8 12.8 93 0.6 CALM 0 0 0 0 1017.0 1017.0 0.0
26/11:00pm 13.9 14.6 12.3 90 0.9 CALM 0 0 0 0 1017.1 1017.1 0.0
26/10:30pm 13.9 14.5 11.9 88 1.1 CALM 0 0 0 0 1017.4 1017.4 0.0
26/10:00pm 14.0 14.6 12.0 88 1.1 CALM 0 0 0 0 1017.8 1017.8 0.0
26/09:30pm 14.1 14.8 12.1 88 1.1 CALM 0 0 0 0 1017.9 1017.9 0.0
26/09:00pm 14.3 15.0 12.3 88 1.1 CALM 0 0 0 0 1018.1 1018.1 0.0
26/08:30pm 14.5 15.1 12.0 85 1.4 CALM 0 0 0 0 1018.4 1018.4 0.0
26/08:00pm 14.6 15.1 11.6 82 1.6 CALM 0 0 0 0 1018.4 1018.4 0.0
26/07:30pm 14.8 15.2 11.4 80 1.8 CALM 0 0 0 0 1018.7 1018.7 0.0
26/07:00pm 15.0 15.4 11.2 78 2.0 CALM 0 0 0 0 1018.5 1018.5 0.0
26/06:30pm 15.4 15.5 11.4 77 2.1 SW 2 6 1 3 1018.4 1018.4 0.0
26/06:00pm 15.5 15.8 10.9 74 2.4 CALM 0 0 0 0 1017.9 1017.9 0.0
26/05:30pm 15.9 15.4 10.9 72 2.7 SSW 4 7 2 4 1017.8 1017.8 0.0
26/05:00pm 16.2 16.2 9.8 66 3.3 CALM 0 0 0 0 1017.5 1017.5 0.0
26/04:30pm 16.5 15.8 9.9 65 3.5 ESE 4 7 2 4 1017.4 1017.4 0.0
26/04:00pm 16.7 15.3 9.6 63 3.7 E 7 9 4 5 1017.2 1017.2 0.0
26/03:30pm 17.0 15.6 9.7 62 3.8 E 7 11 4 6 1017.1 1017.1 0.0
26/03:00pm 17.5 16.2 9.2 58 4.3 NE 6 9 3 5 1017.2 1017.2 0.0
26/02:30pm 17.8 16.6 10.4 62 3.9 NNE 7 11 4 6 1017.5 1017.5 0.0
26/02:00pm 18.2 16.6 10.3 60 4.2 NNE 9 15 5 8 1017.6 1017.6 0.0
26/01:30pm 18.2 16.4 9.5 57 4.6 NNE 9 13 5 7 1018.1 1018.1 0.0
26/01:00pm 18.3 16.4 9.1 55 4.8 NE 9 15 5 8 1018.8 1018.8 0.0
26/12:30pm 18.5 17.7 8.2 51 5.3 N 2 7 1 4 1019.4 1019.4 0.0
26/12:00pm 18.0 16.5 6.8 48 5.6 WSW 4 9 2 5 1020.1 1020.1 0.0
26/11:30am 18.8 18.2 7.3 47 5.8 CALM 0 6 0 3 1020.2 1020.2 0.0
26/11:00am 17.0 14.9 5.9 48 5.4 SSE 6 7 3 4 1020.5 1020.5 0.0
26/10:30am 16.3 14.3 6.4 52 4.8 SSE 6 7 3 4 1020.8 1020.8 0.0
26/10:00am 15.0 12.8 5.2 52 4.6 S 6 7 3 4 1020.9 1020.9 0.0
26/09:30am 14.5 13.5 7.5 63 3.5 SSW 2 6 1 3 1021.1 1021.1 0.0
26/09:00am 11.9 9.7 6.0 67 2.8 S 7 11 4 6 1021.5 1021.5 0.0
26/08:30am 11.8 9.6 5.2 64 3.0 SW 6 11 3 6 1021.7 1021.7 0.0
26/08:00am 10.8 9.3 6.6 75 2.0 WNW 4 7 2 4 1021.0 1021.0 0.0
26/07:30am 7.7 6.3 5.7 87 0.9 WSW 2 7 1 4 1021.4 1021.4 0.0
26/07:00am 5.2 3.9 4.0 92 0.5 CALM 0 0 0 0 1021.5 1021.5 0.0
26/06:30am 4.8 3.4 3.5 91 0.5 CALM 0 6 0 3 1020.7 1020.7 0.0
26/06:00am 5.0 3.6 3.8 92 0.5 CALM 0 0 0 0 1020.1 1020.1 0.0
26/05:30am 5.0 3.6 3.8 92 0.5 CALM 0 0 0 0 1019.3 1019.3 0.0
26/05:00am 5.3 4.1 4.4 94 0.4 CALM 0 0 0 0 1019.2 1019.2 0.0
26/04:30am 5.3 3.9 3.6 89 0.7 CALM 0 0 0 0 1019.3 1019.3 0.0
26/04:00am 5.6 4.3 4.1 90 0.6 CALM 0 0 0 0 1018.7 1018.7 0.0
26/03:30am 5.8 4.5 4.0 88 0.8 CALM 0 0 0 0 1018.6 1018.6 0.0
26/03:00am 6.0 4.7 4.3 89 0.7 CALM 0 0 0 0 1019.1 1019.1 0.0
26/02:30am 6.0 4.6 3.7 85 1.0 CALM 0 0 0 0 1019.2 1019.2 0.0
26/02:00am 6.1 4.7 3.6 84 1.0 CALM 0 0 0 0 1018.9 1018.9 0.0
26/01:30am 6.1 4.4 3.8 85 1.0 W 2 6 1 3 1019.1 1019.1 0.0
26/01:00am 6.4 5.2 4.7 89 0.7 CALM 0 0 0 0 1019.3 1019.3 0.0
26/12:30am 7.1 6.1 5.6 90 0.7 CALM 0 0 0 0 1019.6 1019.6 0.0
26/12:00am 7.3 6.4 6.1 92 0.5 CALM 0 0 0 0 1019.5 1019.5 0.0
 
Date/Time
EST
Temp
°C
App
Temp
°C
Dew
Point
°C
Rel
Hum
%
Delta-T
°C
Wind Press
QNH
hPa
Press
MSL
hPa
Rain since
9am
mm
Dir  Spd
km/h
Gust
km/h
Spd
kts
Gust
kts
25/11:30pm 7.6 6.9 6.9 95 0.3 CALM 0 0 0 0 1019.6 1019.6 0.0
25/11:00pm 7.5 6.7 6.3 92 0.5 CALM 0 0 0 0 1020.1 1020.1 0.0
25/10:30pm 8.1 7.2 6.2 88 0.9 CALM 0 0 0 0 1020.4 1020.4 0.0
25/10:00pm 8.1 7.2 5.9 86 1.0 CALM 0 6 0 3 1020.4 1020.4 0.0
25/09:30pm 8.5 7.5 5.6 82 1.3 CALM 0 0 0 0 1020.4 1020.4 0.0
25/09:00pm 8.9 7.1 5.5 79 1.5 S 4 7 2 4 1020.1 1020.1 0.0
25/08:30pm 9.5 8.5 5.7 77 1.7 CALM 0 0 0 0 1020.1 1020.1 0.0
25/08:00pm 9.9 9.0 5.9 76 1.8 CALM 0 0 0 0 1019.9 1019.9 0.0
25/07:30pm 9.9 9.0 5.9 76 1.8 CALM 0 0 0 0 1019.6 1019.6 0.0
25/07:00pm 10.1 9.1 5.7 74 2.0 CALM 0 0 0 0 1019.3 1019.3 0.0
25/06:30pm 11.4 9.9 6.9 74 2.1 SW 4 7 2 4 1018.9 1018.9 0.0
25/06:00pm 12.3 11.2 6.8 69 2.6 WSW 2 6 1 3 1018.5 1018.5 0.0
25/05:30pm 13.8 11.9 6.7 62 3.4 SSW 6 7 3 4 1018.3 1018.3 0.0
25/05:00pm 15.3 12.9 4.4 48 5.1 S 6 9 3 5 1017.9 1017.9 0.0
25/04:30pm 16.3 13.3 2.0 38 6.4 S 7 11 4 6 1017.6 1017.6 0.0
25/04:00pm 16.8 13.3 1.3 35 6.8 S 9 13 5 7 1017.1 1017.1 0.0
25/03:30pm 17.1 13.5 0.3 32 7.3 S 9 15 5 8 1017.0 1017.0 0.0
25/03:00pm 17.5 13.8 0.2 31 7.5 SW 9 13 5 7 1016.9 1016.9 0.0
25/02:30pm 18.0 14.8 0.6 31 7.6 WSW 7 13 4 7 1016.8 1016.8 0.0
25/02:00pm 18.2 14.0 -1.1 27 8.2 SSW 11 19 6 10 1016.9 1016.9 0.0
25/01:30pm 18.0 13.7 -1.3 27 8.1 WSW 11 20 6 11 1017.0 1017.0 0.0
25/01:00pm 18.4 14.3 -0.4 28 8.1 WSW 11 17 6 9 1017.3 1017.3 0.0
25/12:30pm 18.0 14.0 0.2 30 7.8 SW 11 17 6 9 1017.8 1017.8 0.0
25/12:00pm 17.3 12.0 -0.9 29 7.7 SW 17 24 9 13 1018.4 1018.4 0.0
25/11:30am 16.9 12.3 -0.8 30 7.5 SW 13 24 7 13 1018.8 1018.8 0.0
25/11:00am 16.0 11.9 -0.2 33 6.9 SW 11 20 6 11 1019.1 1019.1 0.0
25/10:30am 16.1 12.3 1.8 38 6.3 SSW 11 17 6 9 1019.4 1019.4 0.0
25/10:00am 15.3 10.9 0.3 36 6.4 SSW 13 24 7 13 1019.4 1019.4 0.0
25/09:30am 15.0 11.3 2.2 42 5.7 SW 11 22 6 12 1019.5 1019.5 0.0
25/09:00am 14.3 10.6 2.5 45 5.2 SW 11 20 6 11 1019.5 1019.5 0.0
25/08:30am 13.2 10.9 2.7 49 4.6 SW 4 9 2 5 1019.3 1019.3 0.0
25/08:00am 11.9 9.9 4.2 59 3.5 SSW 4 7 2 4 1019.3 1019.3 0.0
25/07:30am 10.1 9.0 4.9 70 2.3 CALM 0 7 0 4 1019.1 1019.1 0.0
25/07:00am 8.7 6.9 5.4 80 1.5 SSE 4 7 2 4 1018.5 1018.5 0.0
25/06:30am 9.0 7.2 5.2 77 1.7 SW 4 7 2 4 1017.9 1017.9 0.0
25/06:00am 9.3 7.6 5.9 79 1.6 SSW 4 7 2 4 1017.5 1017.5 0.0
25/05:30am 10.0 8.8 4.8 70 2.3 CALM 0 0 0 0 1016.8 1016.8 0.0
25/05:00am 10.2 8.8 5.4 72 2.2 SSW 2 7 1 4 1016.4 1016.4 0.0
25/04:30am 11.0 9.4 4.7 65 2.8 SSW 2 7 1 4 1016.1 1016.1 0.0
25/04:00am 11.4 9.2 3.2 57 3.6 W 4 7 2 4 1015.7 1015.7 0.0
25/03:30am 12.0 9.7 2.7 53 4.1 WSW 4 9 2 5 1015.3 1015.3 0.0
25/03:00am 13.1 10.3 3.2 51 4.4 WSW 7 13 4 7 1015.1 1015.1 0.0
25/02:30am 14.0 10.9 3.8 50 4.6 SW 9 13 5 7 1015.0 1015.0 0.0
25/02:00am 14.4 11.7 3.8 49 4.8 WSW 7 13 4 7 1014.7 1014.7 0.0
25/01:30am 14.5 11.8 3.9 49 4.8 W 7 15 4 8 1014.3 1014.3 0.0
25/01:00am 15.0 12.6 4.4 49 4.9 WSW 6 11 3 6 1014.5 1014.5 0.0
25/12:30am 15.3 12.9 4.4 48 5.1 WSW 6 11 3 6 1014.3 1014.3 0.0
25/12:00am 15.9 13.0 4.9 48 5.2 WSW 9 17 5 9 1014.4 1014.4 0.0
 
Date/Time
EST
Temp
°C
App
Temp
°C
Dew
Point
°C
Rel
Hum
%
Delta-T
°C
Wind Press
QNH
hPa
Press
MSL
hPa
Rain since
9am
mm
Dir  Spd
km/h
Gust
km/h
Spd
kts
Gust
kts
24/11:30pm 16.4 12.9 5.4 48 5.3 SW 13 24 7 13 1014.5 1014.5 0.0
24/11:00pm 16.5 13.0 5.5 48 5.3 WSW 13 35 7 19 1014.5 1014.5 0.0
24/10:30pm 16.9 13.0 5.2 46 5.6 WSW 15 28 8 15 1014.5 1014.5 0.0
24/10:00pm 17.9 13.8 6.1 46 5.8 WSW 17 37 9 20 1014.5 1014.5 0.0
24/09:30pm 18.0 15.3 7.4 50 5.3 WSW 11 22 6 12 1014.3 1014.3 0.0
24/09:00pm 18.4 15.7 7.5 49 5.5 WSW 11 22 6 12 1014.0 1014.0 0.0
24/08:30pm 18.6 16.6 8.6 52 5.2 WSW 9 17 5 9 1013.6 1013.6 0.0
24/08:00pm 19.2 17.5 9.7 54 5.0 WSW 9 20 5 11 1013.2 1013.2 0.0
24/07:30pm 19.2 17.6 10.2 56 4.8 SW 9 13 5 7 1012.9 1012.9 0.0
24/07:00pm 20.2 17.9 10.3 53 5.3 WSW 13 22 7 12 1012.4 1012.4 0.0
24/06:30pm 20.5 19.2 11.2 55 5.1 SW 9 19 5 10 1012.3 1012.3 0.0
24/06:00pm 21.5 19.3 10.9 51 5.8 WSW 13 24 7 13 1011.9 1011.9 0.0
24/05:30pm 20.4 19.7 12.1 59 4.6 W 7 20 4 11 1011.4 1011.4 0.0
24/05:00pm 21.1 21.3 12.0 56 5.1 W 2 7 1 4 1010.7 1010.7 0.0
24/04:30pm 22.9 21.9 12.2 51 6.1 WSW 9 15 5 8 1010.4 1010.4 0.0
24/04:00pm 22.9 22.6 12.8 53 5.8 WNW 6 15 3 8 1010.0 1010.0 0.0
24/03:30pm 23.3 22.4 12.6 51 6.1 WNW 9 17 5 9 1010.0 1010.0 0.0
24/03:00pm 23.3 22.6 13.2 53 5.8 W 9 24 5 13 1010.1 1010.1 0.0
24/02:30pm 23.4 23.0 13.0 52 6.0 W 7 11 4 6 1010.3 1010.3 0.0
24/02:00pm 24.7 23.8 13.6 50 6.5 W 11 20 6 11 1010.6 1010.6 0.0
24/01:30pm 24.4 23.7 14.2 53 6.0 W 11 22 6 12 1010.5 1010.5 0.0
24/01:00pm 23.8 23.1 14.2 55 5.7 W 11 20 6 11 1011.0 1011.0 0.0
24/12:30pm 23.2 20.9 13.1 53 5.8 WSW 17 30 9 16 1011.3 1011.3 0.0
24/12:00pm 22.7 21.1 12.9 54 5.6 WSW 13 33 7 18 1011.8 1011.8 0.0
24/11:30am 23.7 23.2 16.0 62 4.7 WSW 13 24 7 13 1012.5 1012.5 0.0
24/11:00am 21.2 21.5 15.1 68 3.6 WNW 7 15 4 8 1013.0 1013.0 0.0
24/10:30am 20.2 20.9 15.6 75 2.7 NW 6 11 3 6 1013.2 1013.2 0.0
24/10:00am 19.4 19.9 15.5 78 2.3 NW 7 13 4 7 1013.6 1013.6 0.0
24/09:30am 18.8 19.4 15.9 83 1.7 NNW 7 11 4 6 1013.8 1013.8 0.0
24/09:00am 18.1 18.6 15.5 85 1.5 NW 7 13 4 7 1013.7 1013.7 0.0
24/08:30am 17.8 18.6 15.8 88 1.2 NW 6 9 3 5 1013.6 1013.6 0.0
24/08:00am 17.4 19.6 16.6 95 0.5 CALM 0 0 0 0 1013.3 1013.3 0.0
24/07:30am 17.2 19.3 16.2 94 0.6 CALM 0 6 0 3 1013.2 1013.2 0.0
24/07:00am 17.1 17.4 16.1 94 0.6 WNW 9 17 5 9 1012.7 1012.7 0.0
24/06:30am 16.3 18.3 16.1 99 0.1 CALM 0 0 0 0 1012.7 1012.7 0.0
24/06:00am 16.4 18.5 16.2 99 0.1 CALM 0 0 0 0 1012.6 1012.6 0.0
24/05:30am 16.4 17.3 16.2 99 0.1 N 6 7 3 4 1012.3 1012.3 0.0
24/05:00am 16.3 17.6 16.1 99 0.1 N 4 7 2 4 1012.0 1012.0 0.0
24/04:30am 16.2 18.2 15.9 98 0.2 CALM 0 7 0 4 1012.1 1012.1 0.0
24/04:00am 16.2 18.0 15.6 96 0.4 CALM 0 0 0 0 1012.0 1012.0 0.0
24/03:30am 16.2 17.3 15.7 97 0.3 N 4 7 2 4 1012.1 1012.1 0.0
24/03:00am 16.2 16.7 15.6 96 0.4 NNW 7 9 4 5 1012.3 1012.3 0.0
24/02:30am 16.2 17.1 15.1 93 0.6 N 4 7 2 4 1012.5 1012.5 0.0
24/02:00am 16.3 16.7 15.2 93 0.6 N 7 9 4 5 1012.6 1012.6 0.0
24/01:30am 16.1 16.3 14.8 92 0.7 N 7 9 4 5 1013.0 1013.0 0.0
24/01:00am 16.1 16.3 14.3 89 1.0 NW 6 7 3 4 1013.2 1013.2 0.0
24/12:30am 16.0 16.3 14.4 90 0.9 NNW 6 7 3 4 1013.1 1013.1 0.0
24/12:00am 15.9 16.0 14.4 91 0.9 NW 7 9 4 5 1013.5 1013.5 0.0

Latest Capital City Observations: Canberra | Sydney | Melbourne | Brisbane | Adelaide | Perth | Hobart | Darwin

Other Formats:

Comma delimited format used in spreadsheet applications
http://www.bom.gov.au/fwo/IDQ60901/IDQ60901.94570.axf

JavaScript Object Notation format (JSON) in row-major order
http://www.bom.gov.au/fwo/IDQ60901/IDQ60901.94570.json